sensor_id;sensor_type;location;lat;lon;timestamp;temperature;humidity
12152;DHT22;6139;51.274;7.128;2022-09-25T00:00:11;12.90;99.90
12152;DHT22;6139;51.274;7.128;2022-09-25T00:01:13;12.90;99.90
12152;DHT22;6139;51.274;7.128;2022-09-25T00:02:15;12.90;99.90
12152;DHT22;6139;51.274;7.128;2022-09-25T00:03:18;12.90;99.90
12152;DHT22;6139;51.274;7.128;2022-09-25T00:04:20;13.00;99.90
12152;DHT22;6139;51.274;7.128;2022-09-25T00:05:23;12.90;99.90
12152;DHT22;6139;51.274;7.128;2022-09-25T00:06:28;12.90;99.90
12152;DHT22;6139;51.274;7.128;2022-09-25T00:07:30;12.90;99.90
12152;DHT22;6139;51.274;7.128;2022-09-25T00:08:32;12.90;99.90
12152;DHT22;6139;51.274;7.128;2022-09-25T00:09:34;12.90;99.90
12152;DHT22;6139;51.274;7.128;2022-09-25T00:10:39;12.90;99.90
12152;DHT22;6139;51.274;7.128;2022-09-25T00:11:41;12.90;99.90
12152;DHT22;6139;51.274;7.128;2022-09-25T00:12:43;12.90;99.90
12152;DHT22;6139;51.274;7.128;2022-09-25T00:13:45;12.90;99.90
12152;DHT22;6139;51.274;7.128;2022-09-25T00:14:48;12.90;99.90
12152;DHT22;6139;51.274;7.128;2022-09-25T00:15:51;12.90;99.90
12152;DHT22;6139;51.274;7.128;2022-09-25T00:16:54;12.90;99.90
12152;DHT22;6139;51.274;7.128;2022-09-25T00:17:55;12.90;99.90
12152;DHT22;6139;51.274;7.128;2022-09-25T00:18:58;12.90;99.90
12152;DHT22;6139;51.274;7.128;2022-09-25T00:20:18;12.90;99.90
12152;DHT22;6139;51.274;7.128;2022-09-25T00:21:22;12.90;99.90
12152;DHT22;6139;51.274;7.128;2022-09-25T00:22:23;12.90;99.90
12152;DHT22;6139;51.274;7.128;2022-09-25T00:23:25;12.90;99.90
12152;DHT22;6139;51.274;7.128;2022-09-25T00:24:26;12.80;99.90
12152;DHT22;6139;51.274;7.128;2022-09-25T00:25:28;12.80;99.90
12152;DHT22;6139;51.274;7.128;2022-09-25T00:26:31;12.80;99.90
12152;DHT22;6139;51.274;7.128;2022-09-25T00:27:35;12.80;99.90
12152;DHT22;6139;51.274;7.128;2022-09-25T00:28:38;12.80;99.90
12152;DHT22;6139;51.274;7.128;2022-09-25T00:29:40;12.80;99.90
12152;DHT22;6139;51.274;7.128;2022-09-25T00:30:42;12.90;99.90
12152;DHT22;6139;51.274;7.128;2022-09-25T00:31:44;12.80;99.90
12152;DHT22;6139;51.274;7.128;2022-09-25T00:32:45;12.80;99.90
12152;DHT22;6139;51.274;7.128;2022-09-25T00:33:47;12.90;99.90
12152;DHT22;6139;51.274;7.128;2022-09-25T00:34:48;12.80;99.90
12152;DHT22;6139;51.274;7.128;2022-09-25T00:35:50;12.80;99.90
12152;DHT22;6139;51.274;7.128;2022-09-25T00:36:53;12.80;99.90
12152;DHT22;6139;51.274;7.128;2022-09-25T00:37:54;12.80;99.90
12152;DHT22;6139;51.274;7.128;2022-09-25T00:38:56;12.80;99.90
12152;DHT22;6139;51.274;7.128;2022-09-25T00:39:58;12.80;99.90
12152;DHT22;6139;51.274;7.128;2022-09-25T00:40:59;12.80;99.90
12152;DHT22;6139;51.274;7.128;2022-09-25T00:42:02;12.70;99.90
12152;DHT22;6139;51.274;7.128;2022-09-25T00:43:04;12.70;99.90
12152;DHT22;6139;51.274;7.128;2022-09-25T00:45:43;12.70;99.90
12152;DHT22;6139;51.274;7.128;2022-09-25T00:46:45;12.70;99.90
12152;DHT22;6139;51.274;7.128;2022-09-25T00:47:56;12.70;99.90
12152;DHT22;6139;51.274;7.128;2022-09-25T00:49:02;12.70;99.90
12152;DHT22;6139;51.274;7.128;2022-09-25T00:50:12;12.70;99.90
12152;DHT22;6139;51.274;7.128;2022-09-25T00:51:20;12.70;99.90
12152;DHT22;6139;51.274;7.128;2022-09-25T00:52:31;12.70;99.90
12152;DHT22;6139;51.274;7.128;2022-09-25T00:53:35;12.70;99.90
12152;DHT22;6139;51.274;7.128;2022-09-25T00:54:41;12.70;99.90
12152;DHT22;6139;51.274;7.128;2022-09-25T00:55:44;12.70;99.90
12152;DHT22;6139;51.274;7.128;2022-09-25T00:56:48;12.70;99.90
12152;DHT22;6139;51.274;7.128;2022-09-25T00:57:53;12.70;99.90
12152;DHT22;6139;51.274;7.128;2022-09-25T00:58:59;12.70;99.90
12152;DHT22;6139;51.274;7.128;2022-09-25T01:00:04;12.70;99.90
12152;DHT22;6139;51.274;7.128;2022-09-25T01:01:08;12.70;99.90
12152;DHT22;6139;51.274;7.128;2022-09-25T01:02:16;12.60;99.90
12152;DHT22;6139;51.274;7.128;2022-09-25T01:03:19;12.60;99.90
12152;DHT22;6139;51.274;7.128;2022-09-25T01:04:23;12.60;99.90
12152;DHT22;6139;51.274;7.128;2022-09-25T01:05:28;12.50;99.90
12152;DHT22;6139;51.274;7.128;2022-09-25T01:06:31;12.60;99.90
12152;DHT22;6139;51.274;7.128;2022-09-25T01:07:38;12.50;99.90
12152;DHT22;6139;51.274;7.128;2022-09-25T01:08:41;12.50;99.90
12152;DHT22;6139;51.274;7.128;2022-09-25T01:09:43;12.50;99.90
12152;DHT22;6139;51.274;7.128;2022-09-25T01:10:46;12.50;99.90
12152;DHT22;6139;51.274;7.128;2022-09-25T01:11:47;12.60;99.90
12152;DHT22;6139;51.274;7.128;2022-09-25T01:12:50;12.60;99.90
12152;DHT22;6139;51.274;7.128;2022-09-25T01:13:54;12.60;99.90
12152;DHT22;6139;51.274;7.128;2022-09-25T01:14:57;12.60;99.90
12152;DHT22;6139;51.274;7.128;2022-09-25T01:16:03;12.50;99.90
12152;DHT22;6139;51.274;7.128;2022-09-25T01:17:13;12.50;99.90
12152;DHT22;6139;51.274;7.128;2022-09-25T01:18:26;12.50;99.90
12152;DHT22;6139;51.274;7.128;2022-09-25T01:19:41;12.50;99.90
12152;DHT22;6139;51.274;7.128;2022-09-25T01:21:00;12.50;99.90
12152;DHT22;6139;51.274;7.128;2022-09-25T01:22:09;12.50;99.90
12152;DHT22;6139;51.274;7.128;2022-09-25T01:23:21;12.50;99.90
12152;DHT22;6139;51.274;7.128;2022-09-25T01:24:40;12.50;99.90
12152;DHT22;6139;51.274;7.128;2022-09-25T01:25:55;12.50;99.90
12152;DHT22;6139;51.274;7.128;2022-09-25T01:27:28;12.50;99.90
12152;DHT22;6139;51.274;7.128;2022-09-25T01:28:53;12.50;99.90
12152;DHT22;6139;51.274;7.128;2022-09-25T01:30:01;12.50;99.90
12152;DHT22;6139;51.274;7.128;2022-09-25T01:31:09;12.50;99.90
12152;DHT22;6139;51.274;7.128;2022-09-25T01:32:19;12.50;99.90
12152;DHT22;6139;51.274;7.128;2022-09-25T01:33:26;12.40;99.90
12152;DHT22;6139;51.274;7.128;2022-09-25T01:34:39;12.40;99.90
12152;DHT22;6139;51.274;7.128;2022-09-25T01:35:46;12.40;99.90
12152;DHT22;6139;51.274;7.128;2022-09-25T01:36:54;12.40;99.90
12152;DHT22;6139;51.274;7.128;2022-09-25T01:38:01;12.40;99.90
12152;DHT22;6139;51.274;7.128;2022-09-25T01:39:10;12.40;99.90
12152;DHT22;6139;51.274;7.128;2022-09-25T01:40:21;12.40;99.90
12152;DHT22;6139;51.274;7.128;2022-09-25T01:41:29;12.40;99.90
12152;DHT22;6139;51.274;7.128;2022-09-25T01:42:38;12.40;99.90
12152;DHT22;6139;51.274;7.128;2022-09-25T01:43:45;12.40;99.90
12152;DHT22;6139;51.274;7.128;2022-09-25T01:44:51;12.40;99.90
12152;DHT22;6139;51.274;7.128;2022-09-25T01:45:58;12.40;99.90
12152;DHT22;6139;51.274;7.128;2022-09-25T01:47:04;12.40;99.90
12152;DHT22;6139;51.274;7.128;2022-09-25T01:48:08;12.30;99.90
12152;DHT22;6139;51.274;7.128;2022-09-25T01:49:16;12.30;99.90
12152;DHT22;6139;51.274;7.128;2022-09-25T01:50:24;12.30;99.90
12152;DHT22;6139;51.274;7.128;2022-09-25T01:51:29;12.30;99.90
12152;DHT22;6139;51.274;7.128;2022-09-25T01:52:37;12.30;99.90
12152;DHT22;6139;51.274;7.128;2022-09-25T01:53:44;12.40;99.90
12152;DHT22;6139;51.274;7.128;2022-09-25T01:54:50;12.30;99.90
12152;DHT22;6139;51.274;7.128;2022-09-25T01:55:59;12.40;99.90
12152;DHT22;6139;51.274;7.128;2022-09-25T01:57:06;12.40;99.90
12152;DHT22;6139;51.274;7.128;2022-09-25T01:58:13;12.40;99.90
12152;DHT22;6139;51.274;7.128;2022-09-25T01:59:18;12.40;99.90
12152;DHT22;6139;51.274;7.128;2022-09-25T02:00:23;12.30;99.90
12152;DHT22;6139;51.274;7.128;2022-09-25T02:01:28;12.40;99.90
12152;DHT22;6139;51.274;7.128;2022-09-25T02:02:38;12.30;99.90
12152;DHT22;6139;51.274;7.128;2022-09-25T02:03:43;12.30;99.90
12152;DHT22;6139;51.274;7.128;2022-09-25T02:04:50;12.30;99.90
12152;DHT22;6139;51.274;7.128;2022-09-25T02:05:55;12.30;99.90
12152;DHT22;6139;51.274;7.128;2022-09-25T02:07:02;12.30;99.90
12152;DHT22;6139;51.274;7.128;2022-09-25T02:08:08;12.30;99.90
12152;DHT22;6139;51.274;7.128;2022-09-25T02:09:15;12.30;99.90
12152;DHT22;6139;51.274;7.128;2022-09-25T02:10:22;12.30;99.90
12152;DHT22;6139;51.274;7.128;2022-09-25T02:11:30;12.30;99.90
12152;DHT22;6139;51.274;7.128;2022-09-25T02:12:36;12.30;99.90
12152;DHT22;6139;51.274;7.128;2022-09-25T02:13:43;12.30;99.90
12152;DHT22;6139;51.274;7.128;2022-09-25T02:14:51;12.30;99.90
12152;DHT22;6139;51.274;7.128;2022-09-25T02:15:56;12.30;99.90
12152;DHT22;6139;51.274;7.128;2022-09-25T02:17:00;12.30;99.90
12152;DHT22;6139;51.274;7.128;2022-09-25T02:18:05;12.30;99.90
12152;DHT22;6139;51.274;7.128;2022-09-25T02:19:26;12.20;99.90
12152;DHT22;6139;51.274;7.128;2022-09-25T02:20:49;12.20;99.90
12152;DHT22;6139;51.274;7.128;2022-09-25T02:21:57;12.20;99.90
12152;DHT22;6139;51.274;7.128;2022-09-25T02:23:10;12.20;99.90
12152;DHT22;6139;51.274;7.128;2022-09-25T02:24:19;12.20;99.90
12152;DHT22;6139;51.274;7.128;2022-09-25T02:25:29;12.20;99.90
12152;DHT22;6139;51.274;7.128;2022-09-25T02:26:33;12.20;99.90
12152;DHT22;6139;51.274;7.128;2022-09-25T02:27:35;12.20;99.90
12152;DHT22;6139;51.274;7.128;2022-09-25T02:28:37;12.20;99.90
12152;DHT22;6139;51.274;7.128;2022-09-25T02:29:39;12.20;99.90
12152;DHT22;6139;51.274;7.128;2022-09-25T02:30:42;12.10;99.90
12152;DHT22;6139;51.274;7.128;2022-09-25T02:31:47;12.10;99.90
12152;DHT22;6139;51.274;7.128;2022-09-25T02:32:50;12.10;99.90
12152;DHT22;6139;51.274;7.128;2022-09-25T02:33:52;12.10;99.90
12152;DHT22;6139;51.274;7.128;2022-09-25T02:34:53;12.10;99.90
12152;DHT22;6139;51.274;7.128;2022-09-25T02:35:58;12.10;99.90
12152;DHT22;6139;51.274;7.128;2022-09-25T02:37:00;12.10;99.90
12152;DHT22;6139;51.274;7.128;2022-09-25T02:38:02;12.10;99.90
12152;DHT22;6139;51.274;7.128;2022-09-25T02:39:05;12.10;99.90
12152;DHT22;6139;51.274;7.128;2022-09-25T02:40:09;12.10;99.90
12152;DHT22;6139;51.274;7.128;2022-09-25T02:41:16;12.00;99.90
12152;DHT22;6139;51.274;7.128;2022-09-25T02:42:28;12.00;99.90
12152;DHT22;6139;51.274;7.128;2022-09-25T02:43:38;12.10;99.90
12152;DHT22;6139;51.274;7.128;2022-09-25T02:44:55;12.00;99.90
12152;DHT22;6139;51.274;7.128;2022-09-25T02:46:07;12.00;99.90
12152;DHT22;6139;51.274;7.128;2022-09-25T02:47:21;12.00;99.90
12152;DHT22;6139;51.274;7.128;2022-09-25T02:48:29;12.00;99.90
12152;DHT22;6139;51.274;7.128;2022-09-25T02:49:39;12.00;99.90
12152;DHT22;6139;51.274;7.128;2022-09-25T02:50:50;12.00;99.90
12152;DHT22;6139;51.274;7.128;2022-09-25T02:52:02;12.00;99.90
12152;DHT22;6139;51.274;7.128;2022-09-25T02:53:07;11.90;99.90
12152;DHT22;6139;51.274;7.128;2022-09-25T02:54:15;11.90;99.90
12152;DHT22;6139;51.274;7.128;2022-09-25T02:55:25;11.90;99.90
12152;DHT22;6139;51.274;7.128;2022-09-25T02:56:32;11.80;99.90
12152;DHT22;6139;51.274;7.128;2022-09-25T02:57:40;11.80;99.90
12152;DHT22;6139;51.274;7.128;2022-09-25T02:58:48;11.80;99.90
12152;DHT22;6139;51.274;7.128;2022-09-25T02:59:53;11.90;99.90
12152;DHT22;6139;51.274;7.128;2022-09-25T03:01:00;11.90;99.90
12152;DHT22;6139;51.274;7.128;2022-09-25T03:02:03;11.80;99.90
12152;DHT22;6139;51.274;7.128;2022-09-25T03:03:08;11.80;99.90
12152;DHT22;6139;51.274;7.128;2022-09-25T03:04:10;11.80;99.90
12152;DHT22;6139;51.274;7.128;2022-09-25T03:05:13;11.80;99.90
12152;DHT22;6139;51.274;7.128;2022-09-25T03:06:16;11.80;99.90
12152;DHT22;6139;51.274;7.128;2022-09-25T03:07:19;11.80;99.90
12152;DHT22;6139;51.274;7.128;2022-09-25T03:08:21;11.80;99.90
12152;DHT22;6139;51.274;7.128;2022-09-25T03:09:39;11.80;99.90
12152;DHT22;6139;51.274;7.128;2022-09-25T03:10:42;11.80;99.90
12152;DHT22;6139;51.274;7.128;2022-09-25T03:11:45;11.80;99.90
12152;DHT22;6139;51.274;7.128;2022-09-25T03:12:48;11.80;99.90
12152;DHT22;6139;51.274;7.128;2022-09-25T03:13:55;11.90;99.90
12152;DHT22;6139;51.274;7.128;2022-09-25T03:14:58;11.80;99.90
12152;DHT22;6139;51.274;7.128;2022-09-25T03:16:03;11.80;99.90
12152;DHT22;6139;51.274;7.128;2022-09-25T03:17:07;11.80;99.90
12152;DHT22;6139;51.274;7.128;2022-09-25T03:18:09;11.80;99.90
12152;DHT22;6139;51.274;7.128;2022-09-25T03:19:13;11.80;99.90
12152;DHT22;6139;51.274;7.128;2022-09-25T03:20:14;11.90;99.90
12152;DHT22;6139;51.274;7.128;2022-09-25T03:21:16;11.90;99.90
12152;DHT22;6139;51.274;7.128;2022-09-25T03:22:17;11.90;99.90
12152;DHT22;6139;51.274;7.128;2022-09-25T03:23:23;11.90;99.90
12152;DHT22;6139;51.274;7.128;2022-09-25T03:24:25;11.90;99.90
12152;DHT22;6139;51.274;7.128;2022-09-25T03:25:27;11.80;99.90
12152;DHT22;6139;51.274;7.128;2022-09-25T03:26:29;11.80;99.90
12152;DHT22;6139;51.274;7.128;2022-09-25T03:27:31;11.80;99.90
12152;DHT22;6139;51.274;7.128;2022-09-25T03:28:33;11.80;99.90
12152;DHT22;6139;51.274;7.128;2022-09-25T03:29:34;11.80;99.90
12152;DHT22;6139;51.274;7.128;2022-09-25T03:30:36;11.80;99.90
12152;DHT22;6139;51.274;7.128;2022-09-25T03:31:42;11.70;99.90
12152;DHT22;6139;51.274;7.128;2022-09-25T03:32:43;11.80;99.90
12152;DHT22;6139;51.274;7.128;2022-09-25T03:33:46;11.80;99.90
12152;DHT22;6139;51.274;7.128;2022-09-25T03:34:47;11.80;99.90
12152;DHT22;6139;51.274;7.128;2022-09-25T03:35:59;11.80;99.90
12152;DHT22;6139;51.274;7.128;2022-09-25T03:37:00;11.70;99.90
12152;DHT22;6139;51.274;7.128;2022-09-25T03:38:02;11.80;99.90
12152;DHT22;6139;51.274;7.128;2022-09-25T03:39:04;11.70;99.90
12152;DHT22;6139;51.274;7.128;2022-09-25T03:40:08;11.70;99.90
12152;DHT22;6139;51.274;7.128;2022-09-25T03:41:10;11.70;99.90
12152;DHT22;6139;51.274;7.128;2022-09-25T03:42:12;11.70;99.90
12152;DHT22;6139;51.274;7.128;2022-09-25T03:43:14;11.70;99.90
12152;DHT22;6139;51.274;7.128;2022-09-25T03:44:15;11.70;99.90
12152;DHT22;6139;51.274;7.128;2022-09-25T03:45:16;11.70;99.90
12152;DHT22;6139;51.274;7.128;2022-09-25T03:46:20;11.60;99.90
12152;DHT22;6139;51.274;7.128;2022-09-25T03:47:23;11.60;99.90
12152;DHT22;6139;51.274;7.128;2022-09-25T03:48:25;11.60;99.90
12152;DHT22;6139;51.274;7.128;2022-09-25T03:49:26;11.60;99.90
12152;DHT22;6139;51.274;7.128;2022-09-25T03:50:28;11.60;99.90
12152;DHT22;6139;51.274;7.128;2022-09-25T03:51:30;11.70;99.90
12152;DHT22;6139;51.274;7.128;2022-09-25T03:52:32;11.60;99.90
12152;DHT22;6139;51.274;7.128;2022-09-25T03:53:34;11.60;99.90
12152;DHT22;6139;51.274;7.128;2022-09-25T03:54:36;11.70;99.90
12152;DHT22;6139;51.274;7.128;2022-09-25T03:55:37;11.70;99.90
12152;DHT22;6139;51.274;7.128;2022-09-25T03:56:40;11.70;99.90
12152;DHT22;6139;51.274;7.128;2022-09-25T03:57:41;11.70;99.90
12152;DHT22;6139;51.274;7.128;2022-09-25T03:58:43;11.70;99.90
12152;DHT22;6139;51.274;7.128;2022-09-25T03:59:45;11.70;99.90
12152;DHT22;6139;51.274;7.128;2022-09-25T04:00:47;11.70;99.90
12152;DHT22;6139;51.274;7.128;2022-09-25T04:01:48;11.70;99.90
12152;DHT22;6139;51.274;7.128;2022-09-25T04:02:51;11.70;99.90
12152;DHT22;6139;51.274;7.128;2022-09-25T04:03:52;11.60;99.90
12152;DHT22;6139;51.274;7.128;2022-09-25T04:04:55;11.70;99.90
12152;DHT22;6139;51.274;7.128;2022-09-25T04:05:57;11.70;99.90
12152;DHT22;6139;51.274;7.128;2022-09-25T04:06:59;11.70;99.90
12152;DHT22;6139;51.274;7.128;2022-09-25T04:08:00;11.70;99.90
12152;DHT22;6139;51.274;7.128;2022-09-25T04:09:02;11.60;99.90
12152;DHT22;6139;51.274;7.128;2022-09-25T04:10:04;11.60;99.90
12152;DHT22;6139;51.274;7.128;2022-09-25T04:11:06;11.60;99.90
12152;DHT22;6139;51.274;7.128;2022-09-25T04:12:07;11.50;99.90
12152;DHT22;6139;51.274;7.128;2022-09-25T04:13:09;11.60;99.90
12152;DHT22;6139;51.274;7.128;2022-09-25T04:14:13;11.60;99.90
12152;DHT22;6139;51.274;7.128;2022-09-25T04:15:15;11.60;99.90
12152;DHT22;6139;51.274;7.128;2022-09-25T04:16:16;11.60;99.90
12152;DHT22;6139;51.274;7.128;2022-09-25T04:17:20;11.60;99.90
12152;DHT22;6139;51.274;7.128;2022-09-25T04:18:23;11.60;99.90
12152;DHT22;6139;51.274;7.128;2022-09-25T04:19:25;11.60;99.90
12152;DHT22;6139;51.274;7.128;2022-09-25T04:20:26;11.60;99.90
12152;DHT22;6139;51.274;7.128;2022-09-25T04:21:30;11.60;99.90
12152;DHT22;6139;51.274;7.128;2022-09-25T04:22:32;11.50;99.90
12152;DHT22;6139;51.274;7.128;2022-09-25T04:23:34;11.60;99.90
12152;DHT22;6139;51.274;7.128;2022-09-25T04:24:36;11.50;99.90
12152;DHT22;6139;51.274;7.128;2022-09-25T04:25:50;11.60;99.90
12152;DHT22;6139;51.274;7.128;2022-09-25T04:26:51;11.60;99.90
12152;DHT22;6139;51.274;7.128;2022-09-25T04:27:54;11.50;99.90
12152;DHT22;6139;51.274;7.128;2022-09-25T04:28:59;11.50;99.90
12152;DHT22;6139;51.274;7.128;2022-09-25T04:30:01;11.50;99.90
12152;DHT22;6139;51.274;7.128;2022-09-25T04:31:03;11.50;99.90
12152;DHT22;6139;51.274;7.128;2022-09-25T04:32:04;11.50;99.90
12152;DHT22;6139;51.274;7.128;2022-09-25T04:33:25;11.50;99.90
12152;DHT22;6139;51.274;7.128;2022-09-25T04:34:45;11.50;99.90
12152;DHT22;6139;51.274;7.128;2022-09-25T04:35:47;11.50;99.90
12152;DHT22;6139;51.274;7.128;2022-09-25T04:36:48;11.50;99.90
12152;DHT22;6139;51.274;7.128;2022-09-25T04:37:50;11.50;99.90
12152;DHT22;6139;51.274;7.128;2022-09-25T04:38:51;11.50;99.90
12152;DHT22;6139;51.274;7.128;2022-09-25T04:39:55;11.50;99.90
12152;DHT22;6139;51.274;7.128;2022-09-25T04:40:56;11.50;99.90
12152;DHT22;6139;51.274;7.128;2022-09-25T04:41:59;11.50;99.90
12152;DHT22;6139;51.274;7.128;2022-09-25T04:43:02;11.50;99.90
12152;DHT22;6139;51.274;7.128;2022-09-25T04:44:04;11.50;99.90
12152;DHT22;6139;51.274;7.128;2022-09-25T04:45:06;11.50;99.90
12152;DHT22;6139;51.274;7.128;2022-09-25T04:46:10;11.40;99.90
12152;DHT22;6139;51.274;7.128;2022-09-25T04:47:12;11.50;99.90
12152;DHT22;6139;51.274;7.128;2022-09-25T04:48:13;11.40;99.90
12152;DHT22;6139;51.274;7.128;2022-09-25T04:49:16;11.50;99.90
12152;DHT22;6139;51.274;7.128;2022-09-25T04:50:17;11.50;99.90
12152;DHT22;6139;51.274;7.128;2022-09-25T04:51:19;11.50;99.90
12152;DHT22;6139;51.274;7.128;2022-09-25T04:52:21;11.40;99.90
12152;DHT22;6139;51.274;7.128;2022-09-25T04:53:24;11.50;99.90
12152;DHT22;6139;51.274;7.128;2022-09-25T04:54:26;11.50;99.90
12152;DHT22;6139;51.274;7.128;2022-09-25T04:55:28;11.50;99.90
12152;DHT22;6139;51.274;7.128;2022-09-25T04:56:29;11.40;99.90
12152;DHT22;6139;51.274;7.128;2022-09-25T04:57:31;11.40;99.90
12152;DHT22;6139;51.274;7.128;2022-09-25T04:58:34;11.40;99.90
12152;DHT22;6139;51.274;7.128;2022-09-25T04:59:35;11.40;99.90
12152;DHT22;6139;51.274;7.128;2022-09-25T05:00:37;11.30;99.90
12152;DHT22;6139;51.274;7.128;2022-09-25T05:01:40;11.30;99.90
12152;DHT22;6139;51.274;7.128;2022-09-25T05:02:41;11.30;99.90
12152;DHT22;6139;51.274;7.128;2022-09-25T05:03:46;11.30;99.90
12152;DHT22;6139;51.274;7.128;2022-09-25T05:04:49;11.30;99.90
12152;DHT22;6139;51.274;7.128;2022-09-25T05:05:51;11.30;99.90
12152;DHT22;6139;51.274;7.128;2022-09-25T05:06:52;11.20;99.90
12152;DHT22;6139;51.274;7.128;2022-09-25T05:07:56;11.20;99.90
12152;DHT22;6139;51.274;7.128;2022-09-25T05:08:58;11.30;99.90
12152;DHT22;6139;51.274;7.128;2022-09-25T05:10:00;11.20;99.90
12152;DHT22;6139;51.274;7.128;2022-09-25T05:11:01;11.20;99.90
12152;DHT22;6139;51.274;7.128;2022-09-25T05:12:03;11.20;99.90
12152;DHT22;6139;51.274;7.128;2022-09-25T05:13:06;11.20;99.90
12152;DHT22;6139;51.274;7.128;2022-09-25T05:14:09;11.10;99.90
12152;DHT22;6139;51.274;7.128;2022-09-25T05:15:11;11.10;99.90
12152;DHT22;6139;51.274;7.128;2022-09-25T05:16:13;11.10;99.90
12152;DHT22;6139;51.274;7.128;2022-09-25T05:17:14;11.10;99.90
12152;DHT22;6139;51.274;7.128;2022-09-25T05:18:18;11.10;99.90
12152;DHT22;6139;51.274;7.128;2022-09-25T05:19:19;11.10;99.90
12152;DHT22;6139;51.274;7.128;2022-09-25T05:20:23;11.10;99.90
12152;DHT22;6139;51.274;7.128;2022-09-25T05:21:24;11.00;99.90
12152;DHT22;6139;51.274;7.128;2022-09-25T05:22:27;11.00;99.90
12152;DHT22;6139;51.274;7.128;2022-09-25T05:23:27;11.00;99.90
12152;DHT22;6139;51.274;7.128;2022-09-25T05:24:29;11.00;99.90
12152;DHT22;6139;51.274;7.128;2022-09-25T05:25:31;11.00;99.90
12152;DHT22;6139;51.274;7.128;2022-09-25T05:26:33;11.00;99.90
12152;DHT22;6139;51.274;7.128;2022-09-25T05:27:35;11.00;99.90
12152;DHT22;6139;51.274;7.128;2022-09-25T05:28:37;11.00;99.90
12152;DHT22;6139;51.274;7.128;2022-09-25T05:29:38;11.00;99.90
12152;DHT22;6139;51.274;7.128;2022-09-25T05:30:40;11.00;99.90
12152;DHT22;6139;51.274;7.128;2022-09-25T05:31:43;11.00;99.90
12152;DHT22;6139;51.274;7.128;2022-09-25T05:32:48;11.00;99.90
12152;DHT22;6139;51.274;7.128;2022-09-25T05:33:50;11.00;99.90
12152;DHT22;6139;51.274;7.128;2022-09-25T05:34:53;11.00;99.90
12152;DHT22;6139;51.274;7.128;2022-09-25T05:35:59;11.00;99.90
12152;DHT22;6139;51.274;7.128;2022-09-25T05:37:02;10.90;99.90
12152;DHT22;6139;51.274;7.128;2022-09-25T05:38:03;10.90;99.90
12152;DHT22;6139;51.274;7.128;2022-09-25T05:39:08;10.90;99.90
12152;DHT22;6139;51.274;7.128;2022-09-25T05:40:09;11.00;99.90
12152;DHT22;6139;51.274;7.128;2022-09-25T05:41:11;10.90;99.90
12152;DHT22;6139;51.274;7.128;2022-09-25T05:42:13;10.90;99.90
12152;DHT22;6139;51.274;7.128;2022-09-25T05:43:19;10.90;99.90
12152;DHT22;6139;51.274;7.128;2022-09-25T05:44:20;10.90;99.90
12152;DHT22;6139;51.274;7.128;2022-09-25T05:45:25;11.00;99.90
12152;DHT22;6139;51.274;7.128;2022-09-25T05:46:26;10.90;99.90
12152;DHT22;6139;51.274;7.128;2022-09-25T05:47:28;11.00;99.90
12152;DHT22;6139;51.274;7.128;2022-09-25T05:48:29;11.00;99.90
12152;DHT22;6139;51.274;7.128;2022-09-25T05:49:32;11.00;99.90
12152;DHT22;6139;51.274;7.128;2022-09-25T05:50:33;11.00;99.90
12152;DHT22;6139;51.274;7.128;2022-09-25T05:51:36;11.00;99.90
12152;DHT22;6139;51.274;7.128;2022-09-25T05:52:38;11.00;99.90
12152;DHT22;6139;51.274;7.128;2022-09-25T05:53:40;11.00;99.90
12152;DHT22;6139;51.274;7.128;2022-09-25T05:54:42;10.90;99.90
12152;DHT22;6139;51.274;7.128;2022-09-25T05:55:48;11.00;99.90
12152;DHT22;6139;51.274;7.128;2022-09-25T05:56:50;10.90;99.90
12152;DHT22;6139;51.274;7.128;2022-09-25T05:57:51;10.90;99.90
12152;DHT22;6139;51.274;7.128;2022-09-25T05:58:53;10.90;99.90
12152;DHT22;6139;51.274;7.128;2022-09-25T05:59:55;10.90;99.90
12152;DHT22;6139;51.274;7.128;2022-09-25T06:01:00;10.90;99.90
12152;DHT22;6139;51.274;7.128;2022-09-25T06:02:01;10.90;99.90
12152;DHT22;6139;51.274;7.128;2022-09-25T06:03:03;10.90;99.90
12152;DHT22;6139;51.274;7.128;2022-09-25T06:04:04;10.90;99.90
12152;DHT22;6139;51.274;7.128;2022-09-25T06:05:07;10.90;99.90
12152;DHT22;6139;51.274;7.128;2022-09-25T06:06:08;10.90;99.90
12152;DHT22;6139;51.274;7.128;2022-09-25T06:07:12;10.90;99.90
12152;DHT22;6139;51.274;7.128;2022-09-25T06:08:13;10.80;99.90
12152;DHT22;6139;51.274;7.128;2022-09-25T06:09:15;10.80;99.90
12152;DHT22;6139;51.274;7.128;2022-09-25T06:10:16;10.80;99.90
12152;DHT22;6139;51.274;7.128;2022-09-25T06:11:18;10.80;99.90
12152;DHT22;6139;51.274;7.128;2022-09-25T06:12:19;10.80;99.90
12152;DHT22;6139;51.274;7.128;2022-09-25T06:13:23;10.80;99.90
12152;DHT22;6139;51.274;7.128;2022-09-25T06:14:25;10.80;99.90
12152;DHT22;6139;51.274;7.128;2022-09-25T06:15:28;10.80;99.90
12152;DHT22;6139;51.274;7.128;2022-09-25T06:16:30;10.80;99.90
12152;DHT22;6139;51.274;7.128;2022-09-25T06:17:33;10.80;99.90
12152;DHT22;6139;51.274;7.128;2022-09-25T06:18:36;10.80;99.90
12152;DHT22;6139;51.274;7.128;2022-09-25T06:19:38;10.80;99.90
12152;DHT22;6139;51.274;7.128;2022-09-25T06:20:39;10.80;99.90
12152;DHT22;6139;51.274;7.128;2022-09-25T06:21:41;10.70;99.90
12152;DHT22;6139;51.274;7.128;2022-09-25T06:22:43;10.80;99.90
12152;DHT22;6139;51.274;7.128;2022-09-25T06:23:51;10.80;99.90
12152;DHT22;6139;51.274;7.128;2022-09-25T06:24:54;10.80;99.90
12152;DHT22;6139;51.274;7.128;2022-09-25T06:25:59;10.80;99.90
12152;DHT22;6139;51.274;7.128;2022-09-25T06:27:01;10.80;99.90
12152;DHT22;6139;51.274;7.128;2022-09-25T06:28:03;10.80;99.90
12152;DHT22;6139;51.274;7.128;2022-09-25T06:29:06;10.80;99.90
12152;DHT22;6139;51.274;7.128;2022-09-25T06:30:08;10.80;99.90
12152;DHT22;6139;51.274;7.128;2022-09-25T06:31:10;10.70;99.90
12152;DHT22;6139;51.274;7.128;2022-09-25T06:32:12;10.70;99.90
12152;DHT22;6139;51.274;7.128;2022-09-25T06:33:13;10.70;99.90
12152;DHT22;6139;51.274;7.128;2022-09-25T06:34:15;10.70;99.90
12152;DHT22;6139;51.274;7.128;2022-09-25T06:35:16;10.70;99.90
12152;DHT22;6139;51.274;7.128;2022-09-25T06:36:18;10.60;99.90
12152;DHT22;6139;51.274;7.128;2022-09-25T06:37:19;10.70;99.90
12152;DHT22;6139;51.274;7.128;2022-09-25T06:38:22;10.70;99.90
12152;DHT22;6139;51.274;7.128;2022-09-25T06:39:24;10.70;99.90
12152;DHT22;6139;51.274;7.128;2022-09-25T06:40:28;10.70;99.90
12152;DHT22;6139;51.274;7.128;2022-09-25T06:41:30;10.80;99.90
12152;DHT22;6139;51.274;7.128;2022-09-25T06:42:36;10.80;99.90
12152;DHT22;6139;51.274;7.128;2022-09-25T06:43:37;10.80;99.90
12152;DHT22;6139;51.274;7.128;2022-09-25T06:44:39;10.90;99.90
12152;DHT22;6139;51.274;7.128;2022-09-25T06:45:40;10.90;99.90
12152;DHT22;6139;51.274;7.128;2022-09-25T06:46:43;11.00;99.90
12152;DHT22;6139;51.274;7.128;2022-09-25T06:47:45;11.00;99.90
12152;DHT22;6139;51.274;7.128;2022-09-25T06:48:50;11.10;99.90
12152;DHT22;6139;51.274;7.128;2022-09-25T06:49:53;11.10;99.90
12152;DHT22;6139;51.274;7.128;2022-09-25T06:50:56;11.20;99.90
12152;DHT22;6139;51.274;7.128;2022-09-25T06:51:58;11.20;99.90
12152;DHT22;6139;51.274;7.128;2022-09-25T06:53:00;11.20;99.90